sensor_id;sensor_type;location;lat;lon;timestamp;P1;durP1;ratioP1;P2;durP2;ratioP2
21303;SDS011;30547;52.384;9.744;2022-08-11T00:00:21;3.13;;;2.15;;
21303;SDS011;30547;52.384;9.744;2022-08-11T00:03:02;3.30;;;2.15;;
21303;SDS011;30547;52.384;9.744;2022-08-11T00:08:35;5.45;;;2.35;;
21303;SDS011;30547;52.384;9.744;2022-08-11T00:11:11;5.37;;;2.40;;
21303;SDS011;30547;52.384;9.744;2022-08-11T00:13:39;5.20;;;2.67;;
21303;SDS011;30547;52.384;9.744;2022-08-11T00:16:16;5.27;;;2.43;;
21303;SDS011;30547;52.384;9.744;2022-08-11T00:18:45;2.97;;;2.30;;
21303;SDS011;30547;52.384;9.744;2022-08-11T00:21:23;3.63;;;2.20;;
21303;SDS011;30547;52.384;9.744;2022-08-11T00:23:56;4.93;;;2.50;;
21303;SDS011;30547;52.384;9.744;2022-08-11T00:26:29;3.97;;;2.40;;
21303;SDS011;30547;52.384;9.744;2022-08-11T00:29:10;4.20;;;2.45;;
21303;SDS011;30547;52.384;9.744;2022-08-11T00:31:36;4.57;;;2.40;;
21303;SDS011;30547;52.384;9.744;2022-08-11T00:34:09;6.10;;;2.40;;
21303;SDS011;30547;52.384;9.744;2022-08-11T00:36:42;4.13;;;2.33;;
21303;SDS011;30547;52.384;9.744;2022-08-11T00:39:10;3.55;;;2.28;;
21303;SDS011;30547;52.384;9.744;2022-08-11T00:47:16;3.40;;;2.40;;
21303;SDS011;30547;52.384;9.744;2022-08-11T00:55:30;3.33;;;2.35;;
21303;SDS011;30547;52.384;9.744;2022-08-11T01:01:31;4.15;;;2.25;;
21303;SDS011;30547;52.384;9.744;2022-08-11T01:07:05;6.63;;;2.72;;
21303;SDS011;30547;52.384;9.744;2022-08-11T01:21:45;3.40;;;2.60;;
21303;SDS011;30547;52.384;9.744;2022-08-11T01:42:55;5.32;;;2.80;;
21303;SDS011;30547;52.384;9.744;2022-08-11T01:48:40;5.30;;;3.10;;
21303;SDS011;30547;52.384;9.744;2022-08-11T01:54:48;6.18;;;2.67;;
21303;SDS011;30547;52.384;9.744;2022-08-11T02:00:13;3.30;;;2.70;;
21303;SDS011;30547;52.384;9.744;2022-08-11T02:11:39;4.18;;;2.70;;
21303;SDS011;30547;52.384;9.744;2022-08-11T02:31:33;4.88;;;2.95;;
21303;SDS011;30547;52.384;9.744;2022-08-11T02:34:37;5.00;;;3.15;;
21303;SDS011;30547;52.384;9.744;2022-08-11T02:42:41;6.13;;;3.30;;
21303;SDS011;30547;52.384;9.744;2022-08-11T02:48:35;4.15;;;3.22;;
21303;SDS011;30547;52.384;9.744;2022-08-11T02:59:52;4.70;;;3.30;;
21303;SDS011;30547;52.384;9.744;2022-08-11T03:11:10;4.45;;;3.20;;
21303;SDS011;30547;52.384;9.744;2022-08-11T03:14:34;4.03;;;2.90;;
21303;SDS011;30547;52.384;9.744;2022-08-11T03:21:36;6.40;;;3.60;;
21303;SDS011;30547;52.384;9.744;2022-08-11T03:24:12;4.03;;;3.38;;
21303;SDS011;30547;52.384;9.744;2022-08-11T03:26:46;7.10;;;3.75;;
21303;SDS011;30547;52.384;9.744;2022-08-11T03:29:29;4.25;;;3.35;;
21303;SDS011;30547;52.384;9.744;2022-08-11T03:32:23;5.15;;;3.53;;
21303;SDS011;30547;52.384;9.744;2022-08-11T03:35:04;5.50;;;3.53;;
21303;SDS011;30547;52.384;9.744;2022-08-11T03:37:50;7.27;;;3.60;;
21303;SDS011;30547;52.384;9.744;2022-08-11T03:40:26;5.70;;;3.70;;
21303;SDS011;30547;52.384;9.744;2022-08-11T03:45:52;5.18;;;3.72;;
21303;SDS011;30547;52.384;9.744;2022-08-11T04:13:12;4.97;;;3.93;;
21303;SDS011;30547;52.384;9.744;2022-08-11T04:15:49;7.13;;;3.88;;
21303;SDS011;30547;52.384;9.744;2022-08-11T04:27:26;5.97;;;3.67;;
21303;SDS011;30547;52.384;9.744;2022-08-11T04:30:15;5.40;;;3.23;;
21303;SDS011;30547;52.384;9.744;2022-08-11T04:49:27;8.50;;;3.60;;
21303;SDS011;30547;52.384;9.744;2022-08-11T05:13:31;7.25;;;3.67;;
21303;SDS011;30547;52.384;9.744;2022-08-11T05:16:18;4.50;;;3.33;;
21303;SDS011;30547;52.384;9.744;2022-08-11T05:19:06;5.45;;;3.40;;
21303;SDS011;30547;52.384;9.744;2022-08-11T05:21:52;6.45;;;3.33;;
21303;SDS011;30547;52.384;9.744;2022-08-11T05:24:44;5.80;;;3.72;;
21303;SDS011;30547;52.384;9.744;2022-08-11T05:27:44;6.90;;;4.55;;
21303;SDS011;30547;52.384;9.744;2022-08-11T05:30:35;5.35;;;4.13;;
21303;SDS011;30547;52.384;9.744;2022-08-11T05:33:29;7.25;;;3.70;;
21303;SDS011;30547;52.384;9.744;2022-08-11T05:36:27;6.03;;;3.55;;
21303;SDS011;30547;52.384;9.744;2022-08-11T05:39:01;7.88;;;3.83;;
21303;SDS011;30547;52.384;9.744;2022-08-11T05:41:47;4.57;;;3.28;;
21303;SDS011;30547;52.384;9.744;2022-08-11T05:44:32;7.28;;;3.70;;
21303;SDS011;30547;52.384;9.744;2022-08-11T05:47:23;6.85;;;3.65;;
21303;SDS011;30547;52.384;9.744;2022-08-11T05:50:11;4.70;;;3.58;;
21303;SDS011;30547;52.384;9.744;2022-08-11T05:52:58;8.13;;;3.50;;
21303;SDS011;30547;52.384;9.744;2022-08-11T05:55:44;6.30;;;4.00;;
21303;SDS011;30547;52.384;9.744;2022-08-11T05:58:39;6.20;;;3.60;;
21303;SDS011;30547;52.384;9.744;2022-08-11T06:01:11;7.70;;;3.20;;
21303;SDS011;30547;52.384;9.744;2022-08-11T06:03:38;6.53;;;3.22;;
21303;SDS011;30547;52.384;9.744;2022-08-11T06:06:26;4.88;;;3.38;;
21303;SDS011;30547;52.384;9.744;2022-08-11T06:08:58;6.97;;;3.83;;
21303;SDS011;30547;52.384;9.744;2022-08-11T06:11:27;5.57;;;3.50;;
21303;SDS011;30547;52.384;9.744;2022-08-11T06:13:56;8.07;;;4.05;;
21303;SDS011;30547;52.384;9.744;2022-08-11T06:16:24;6.45;;;3.60;;
21303;SDS011;30547;52.384;9.744;2022-08-11T06:18:51;8.27;;;3.25;;
21303;SDS011;30547;52.384;9.744;2022-08-11T06:21:20;5.70;;;3.40;;
21303;SDS011;30547;52.384;9.744;2022-08-11T06:23:48;7.30;;;3.30;;
21303;SDS011;30547;52.384;9.744;2022-08-11T06:26:17;5.18;;;2.95;;
21303;SDS011;30547;52.384;9.744;2022-08-11T06:28:46;7.00;;;3.38;;
21303;SDS011;30547;52.384;9.744;2022-08-11T06:31:20;5.33;;;2.67;;
21303;SDS011;30547;52.384;9.744;2022-08-11T06:33:55;5.32;;;2.92;;
21303;SDS011;30547;52.384;9.744;2022-08-11T06:36:31;6.40;;;2.80;;
21303;SDS011;30547;52.384;9.744;2022-08-11T06:39:16;5.53;;;2.43;;
21303;SDS011;30547;52.384;9.744;2022-08-11T06:41:57;6.43;;;2.40;;
21303;SDS011;30547;52.384;9.744;2022-08-11T06:44:50;5.75;;;2.72;;
21303;SDS011;30547;52.384;9.744;2022-08-11T06:47:45;4.72;;;2.63;;
21303;SDS011;30547;52.384;9.744;2022-08-11T06:50:19;6.18;;;2.45;;
21303;SDS011;30547;52.384;9.744;2022-08-11T06:53:07;5.82;;;2.70;;
21303;SDS011;30547;52.384;9.744;2022-08-11T06:55:40;4.57;;;2.63;;
21303;SDS011;30547;52.384;9.744;2022-08-11T06:58:27;4.27;;;2.50;;
21303;SDS011;30547;52.384;9.744;2022-08-11T07:01:15;4.77;;;2.47;;
21303;SDS011;30547;52.384;9.744;2022-08-11T07:03:52;4.15;;;2.58;;
21303;SDS011;30547;52.384;9.744;2022-08-11T07:13:09;4.40;;;2.20;;
21303;SDS011;30547;52.384;9.744;2022-08-11T07:16:03;3.55;;;2.40;;
21303;SDS011;30547;52.384;9.744;2022-08-11T07:18:34;5.00;;;2.65;;
21303;SDS011;30547;52.384;9.744;2022-08-11T07:21:31;5.70;;;2.35;;
21303;SDS011;30547;52.384;9.744;2022-08-11T07:24:20;5.10;;;2.13;;
21303;SDS011;30547;52.384;9.744;2022-08-11T07:27:09;4.25;;;2.30;;
21303;SDS011;30547;52.384;9.744;2022-08-11T07:29:55;5.07;;;2.45;;
21303;SDS011;30547;52.384;9.744;2022-08-11T07:32:30;6.32;;;2.53;;
21303;SDS011;30547;52.384;9.744;2022-08-11T07:35:08;4.78;;;2.40;;
21303;SDS011;30547;52.384;9.744;2022-08-11T07:37:42;3.70;;;2.55;;
21303;SDS011;30547;52.384;9.744;2022-08-11T07:40:20;4.45;;;2.47;;
21303;SDS011;30547;52.384;9.744;2022-08-11T07:42:48;5.15;;;2.80;;
21303;SDS011;30547;52.384;9.744;2022-08-11T07:45:19;6.10;;;2.30;;
21303;SDS011;30547;52.384;9.744;2022-08-11T07:48:05;5.50;;;2.10;;
21303;SDS011;30547;52.384;9.744;2022-08-11T07:50:51;4.75;;;2.30;;
21303;SDS011;30547;52.384;9.744;2022-08-11T07:53:38;8.13;;;2.85;;
21303;SDS011;30547;52.384;9.744;2022-08-11T07:56:06;6.32;;;2.30;;
21303;SDS011;30547;52.384;9.744;2022-08-11T07:58:34;3.60;;;2.22;;
21303;SDS011;30547;52.384;9.744;2022-08-11T08:01:22;4.13;;;2.30;;
21303;SDS011;30547;52.384;9.744;2022-08-11T08:04:11;5.47;;;2.05;;
21303;SDS011;30547;52.384;9.744;2022-08-11T08:07:01;6.50;;;2.37;;
21303;SDS011;30547;52.384;9.744;2022-08-11T08:09:49;5.47;;;2.03;;
21303;SDS011;30547;52.384;9.744;2022-08-11T08:12:42;2.90;;;2.08;;
21303;SDS011;30547;52.384;9.744;2022-08-11T08:15:31;3.70;;;2.00;;
21303;SDS011;30547;52.384;9.744;2022-08-11T08:18:18;5.60;;;2.00;;
21303;SDS011;30547;52.384;9.744;2022-08-11T08:20:47;5.53;;;1.95;;
21303;SDS011;30547;52.384;9.744;2022-08-11T08:23:17;5.80;;;2.17;;
21303;SDS011;30547;52.384;9.744;2022-08-11T08:25:57;3.33;;;1.90;;
21303;SDS011;30547;52.384;9.744;2022-08-11T08:28:27;4.53;;;1.92;;
21303;SDS011;30547;52.384;9.744;2022-08-11T08:31:00;6.20;;;1.95;;
21303;SDS011;30547;52.384;9.744;2022-08-11T08:33:30;3.78;;;1.80;;
21303;SDS011;30547;52.384;9.744;2022-08-11T08:35:59;3.95;;;1.88;;
21303;SDS011;30547;52.384;9.744;2022-08-11T08:38:49;5.50;;;1.75;;
21303;SDS011;30547;52.384;9.744;2022-08-11T08:41:24;7.22;;;1.95;;
21303;SDS011;30547;52.384;9.744;2022-08-11T08:44:06;3.23;;;1.80;;
21303;SDS011;30547;52.384;9.744;2022-08-11T08:46:40;2.10;;;1.80;;
21303;SDS011;30547;52.384;9.744;2022-08-11T08:49:15;3.67;;;2.10;;
21303;SDS011;30547;52.384;9.744;2022-08-11T08:51:48;3.47;;;1.67;;
21303;SDS011;30547;52.384;9.744;2022-08-11T08:54:20;4.72;;;1.73;;
21303;SDS011;30547;52.384;9.744;2022-08-11T08:56:56;3.83;;;1.75;;
21303;SDS011;30547;52.384;9.744;2022-08-11T08:59:30;3.35;;;1.80;;
21303;SDS011;30547;52.384;9.744;2022-08-11T09:02:03;2.47;;;1.60;;
21303;SDS011;30547;52.384;9.744;2022-08-11T09:04:33;2.33;;;1.55;;
21303;SDS011;30547;52.384;9.744;2022-08-11T09:07:10;2.47;;;1.73;;
21303;SDS011;30547;52.384;9.744;2022-08-11T09:09:45;3.05;;;1.65;;
21303;SDS011;30547;52.384;9.744;2022-08-11T09:12:17;2.83;;;1.70;;
21303;SDS011;30547;52.384;9.744;2022-08-11T09:14:45;1.67;;;1.52;;
21303;SDS011;30547;52.384;9.744;2022-08-11T09:17:44;7.53;;;4.50;;
21303;SDS011;30547;52.384;9.744;2022-08-11T09:20:24;4.30;;;1.97;;
21303;SDS011;30547;52.384;9.744;2022-08-11T09:22:55;2.63;;;1.85;;
21303;SDS011;30547;52.384;9.744;2022-08-11T09:25:42;2.70;;;1.73;;
21303;SDS011;30547;52.384;9.744;2022-08-11T09:28:30;2.85;;;1.58;;
21303;SDS011;30547;52.384;9.744;2022-08-11T09:31:00;2.28;;;1.63;;
21303;SDS011;30547;52.384;9.744;2022-08-11T09:33:28;3.35;;;1.50;;
21303;SDS011;30547;52.384;9.744;2022-08-11T09:35:56;2.25;;;1.60;;
21303;SDS011;30547;52.384;9.744;2022-08-11T09:38:23;2.67;;;1.67;;
21303;SDS011;30547;52.384;9.744;2022-08-11T09:41:10;4.30;;;1.98;;
21303;SDS011;30547;52.384;9.744;2022-08-11T09:43:44;3.83;;;1.70;;
21303;SDS011;30547;52.384;9.744;2022-08-11T09:46:30;1.88;;;1.60;;
21303;SDS011;30547;52.384;9.744;2022-08-11T09:48:59;2.63;;;1.67;;
21303;SDS011;30547;52.384;9.744;2022-08-11T09:51:29;4.90;;;2.00;;
21303;SDS011;30547;52.384;9.744;2022-08-11T09:53:58;3.80;;;1.70;;
21303;SDS011;30547;52.384;9.744;2022-08-11T09:56:26;2.20;;;1.67;;
21303;SDS011;30547;52.384;9.744;2022-08-11T09:59:22;3.00;;;1.70;;
21303;SDS011;30547;52.384;9.744;2022-08-11T10:01:51;2.80;;;1.60;;
21303;SDS011;30547;52.384;9.744;2022-08-11T10:04:43;4.95;;;1.80;;
21303;SDS011;30547;52.384;9.744;2022-08-11T10:07:12;2.35;;;1.60;;
21303;SDS011;30547;52.384;9.744;2022-08-11T10:12:26;3.75;;;1.80;;
21303;SDS011;30547;52.384;9.744;2022-08-11T10:15:00;3.45;;;1.60;;
21303;SDS011;30547;52.384;9.744;2022-08-11T10:17:48;2.37;;;1.60;;
21303;SDS011;30547;52.384;9.744;2022-08-11T10:20:36;2.43;;;1.77;;
21303;SDS011;30547;52.384;9.744;2022-08-11T10:23:02;4.13;;;1.60;;
21303;SDS011;30547;52.384;9.744;2022-08-11T10:25:47;2.30;;;1.57;;
21303;SDS011;30547;52.384;9.744;2022-08-11T10:28:31;2.03;;;1.50;;
21303;SDS011;30547;52.384;9.744;2022-08-11T10:30:59;2.08;;;1.67;;
21303;SDS011;30547;52.384;9.744;2022-08-11T10:33:45;2.75;;;1.75;;
21303;SDS011;30547;52.384;9.744;2022-08-11T10:36:33;3.38;;;1.60;;
21303;SDS011;30547;52.384;9.744;2022-08-11T10:39:09;4.72;;;1.67;;
21303;SDS011;30547;52.384;9.744;2022-08-11T10:41:36;3.00;;;1.70;;
21303;SDS011;30547;52.384;9.744;2022-08-11T10:44:21;2.42;;;1.58;;
21303;SDS011;30547;52.384;9.744;2022-08-11T10:46:47;2.08;;;1.50;;
21303;SDS011;30547;52.384;9.744;2022-08-11T10:49:31;4.32;;;1.70;;
21303;SDS011;30547;52.384;9.744;2022-08-11T10:52:00;4.47;;;1.80;;
21303;SDS011;30547;52.384;9.744;2022-08-11T10:54:45;5.63;;;1.70;;
21303;SDS011;30547;52.384;9.744;2022-08-11T10:57:32;3.83;;;1.83;;
21303;SDS011;30547;52.384;9.744;2022-08-11T11:00:16;4.13;;;1.60;;
21303;SDS011;30547;52.384;9.744;2022-08-11T11:02:42;2.47;;;1.63;;
21303;SDS011;30547;52.384;9.744;2022-08-11T11:05:12;1.87;;;1.40;;
21303;SDS011;30547;52.384;9.744;2022-08-11T11:07:46;4.00;;;1.80;;
21303;SDS011;30547;52.384;9.744;2022-08-11T11:10:19;2.20;;;1.63;;
21303;SDS011;30547;52.384;9.744;2022-08-11T11:12:50;2.77;;;1.73;;
21303;SDS011;30547;52.384;9.744;2022-08-11T11:15:37;6.13;;;1.60;;
21303;SDS011;30547;52.384;9.744;2022-08-11T11:18:28;4.03;;;2.00;;
21303;SDS011;30547;52.384;9.744;2022-08-11T11:21:14;2.03;;;1.55;;
21303;SDS011;30547;52.384;9.744;2022-08-11T11:27:01;4.03;;;1.70;;
21303;SDS011;30547;52.384;9.744;2022-08-11T11:32:42;6.10;;;2.38;;
21303;SDS011;30547;52.384;9.744;2022-08-11T11:35:16;3.40;;;1.63;;
21303;SDS011;30547;52.384;9.744;2022-08-11T11:37:48;5.13;;;1.80;;
21303;SDS011;30547;52.384;9.744;2022-08-11T11:40:15;5.05;;;1.92;;
21303;SDS011;30547;52.384;9.744;2022-08-11T11:42:45;3.53;;;1.52;;
21303;SDS011;30547;52.384;9.744;2022-08-11T11:45:16;3.88;;;1.70;;
21303;SDS011;30547;52.384;9.744;2022-08-11T11:47:45;3.63;;;1.65;;
21303;SDS011;30547;52.384;9.744;2022-08-11T11:50:15;2.42;;;1.48;;
21303;SDS011;30547;52.384;9.744;2022-08-11T11:53:02;5.35;;;1.50;;
21303;SDS011;30547;52.384;9.744;2022-08-11T11:55:30;2.13;;;1.70;;
21303;SDS011;30547;52.384;9.744;2022-08-11T11:57:56;2.38;;;1.42;;
21303;SDS011;30547;52.384;9.744;2022-08-11T12:00:42;3.80;;;1.65;;
21303;SDS011;30547;52.384;9.744;2022-08-11T12:03:26;2.63;;;1.42;;
21303;SDS011;30547;52.384;9.744;2022-08-11T12:05:52;2.45;;;1.40;;
21303;SDS011;30547;52.384;9.744;2022-08-11T12:08:18;3.40;;;1.60;;
21303;SDS011;30547;52.384;9.744;2022-08-11T12:10:54;6.15;;;1.52;;
21303;SDS011;30547;52.384;9.744;2022-08-11T12:13:41;2.85;;;1.77;;
21303;SDS011;30547;52.384;9.744;2022-08-11T12:16:10;4.63;;;1.50;;
21303;SDS011;30547;52.384;9.744;2022-08-11T12:18:36;2.65;;;1.60;;
21303;SDS011;30547;52.384;9.744;2022-08-11T12:21:03;3.50;;;1.67;;
21303;SDS011;30547;52.384;9.744;2022-08-11T12:23:30;4.22;;;1.52;;
21303;SDS011;30547;52.384;9.744;2022-08-11T12:26:15;2.33;;;1.60;;
21303;SDS011;30547;52.384;9.744;2022-08-11T12:29:01;3.63;;;1.50;;
21303;SDS011;30547;52.384;9.744;2022-08-11T12:31:28;3.08;;;1.55;;
21303;SDS011;30547;52.384;9.744;2022-08-11T12:33:59;2.17;;;1.40;;
21303;SDS011;30547;52.384;9.744;2022-08-11T12:36:28;1.60;;;1.50;;
21303;SDS011;30547;52.384;9.744;2022-08-11T12:38:57;2.70;;;1.63;;
21303;SDS011;30547;52.384;9.744;2022-08-11T12:41:24;2.75;;;1.40;;
21303;SDS011;30547;52.384;9.744;2022-08-11T12:44:08;3.20;;;1.63;;
21303;SDS011;30547;52.384;9.744;2022-08-11T12:46:54;2.83;;;1.58;;
21303;SDS011;30547;52.384;9.744;2022-08-11T12:49:22;2.55;;;1.50;;
21303;SDS011;30547;52.384;9.744;2022-08-11T12:52:07;4.10;;;1.60;;
21303;SDS011;30547;52.384;9.744;2022-08-11T12:54:39;2.08;;;1.50;;
21303;SDS011;30547;52.384;9.744;2022-08-11T12:57:09;2.58;;;1.48;;
21303;SDS011;30547;52.384;9.744;2022-08-11T12:59:56;4.47;;;2.38;;
21303;SDS011;30547;52.384;9.744;2022-08-11T13:02:43;3.70;;;1.83;;
21303;SDS011;30547;52.384;9.744;2022-08-11T13:05:27;2.75;;;1.77;;
21303;SDS011;30547;52.384;9.744;2022-08-11T13:07:57;2.37;;;1.40;;
21303;SDS011;30547;52.384;9.744;2022-08-11T13:10:25;5.13;;;1.80;;
21303;SDS011;30547;52.384;9.744;2022-08-11T13:13:10;2.63;;;1.60;;
21303;SDS011;30547;52.384;9.744;2022-08-11T13:15:36;3.10;;;1.60;;
21303;SDS011;30547;52.384;9.744;2022-08-11T13:18:04;3.55;;;1.80;;
21303;SDS011;30547;52.384;9.744;2022-08-11T13:20:32;3.83;;;1.73;;
21303;SDS011;30547;52.384;9.744;2022-08-11T13:22:58;3.17;;;1.50;;
21303;SDS011;30547;52.384;9.744;2022-08-11T13:25:27;2.72;;;1.60;;
21303;SDS011;30547;52.384;9.744;2022-08-11T13:27:56;2.53;;;1.60;;
21303;SDS011;30547;52.384;9.744;2022-08-11T13:30:24;3.58;;;1.42;;
21303;SDS011;30547;52.384;9.744;2022-08-11T13:33:08;4.80;;;1.80;;
21303;SDS011;30547;52.384;9.744;2022-08-11T13:35:35;1.80;;;1.50;;
21303;SDS011;30547;52.384;9.744;2022-08-11T13:38:01;3.67;;;2.00;;
21303;SDS011;30547;52.384;9.744;2022-08-11T13:40:28;2.10;;;1.85;;
21303;SDS011;30547;52.384;9.744;2022-08-11T13:42:54;3.30;;;1.70;;
21303;SDS011;30547;52.384;9.744;2022-08-11T13:45:22;3.75;;;1.85;;
21303;SDS011;30547;52.384;9.744;2022-08-11T13:47:51;3.47;;;1.70;;
21303;SDS011;30547;52.384;9.744;2022-08-11T13:50:20;4.75;;;1.75;;
21303;SDS011;30547;52.384;9.744;2022-08-11T13:53:10;2.60;;;1.83;;
21303;SDS011;30547;52.384;9.744;2022-08-11T13:55:38;2.88;;;1.98;;
21303;SDS011;30547;52.384;9.744;2022-08-11T13:58:10;2.60;;;1.98;;
21303;SDS011;30547;52.384;9.744;2022-08-11T14:00:38;3.13;;;1.80;;
21303;SDS011;30547;52.384;9.744;2022-08-11T14:03:22;4.70;;;2.38;;
21303;SDS011;30547;52.384;9.744;2022-08-11T14:05:52;9.55;;;1.70;;
21303;SDS011;30547;52.384;9.744;2022-08-11T14:08:30;15.88;;;2.20;;
21303;SDS011;30547;52.384;9.744;2022-08-11T14:10:58;4.28;;;1.77;;
21303;SDS011;30547;52.384;9.744;2022-08-11T14:13:48;4.00;;;1.75;;
21303;SDS011;30547;52.384;9.744;2022-08-11T14:16:19;4.50;;;1.65;;
21303;SDS011;30547;52.384;9.744;2022-08-11T14:18:56;2.60;;;1.60;;
21303;SDS011;30547;52.384;9.744;2022-08-11T14:21:24;3.70;;;1.60;;
21303;SDS011;30547;52.384;9.744;2022-08-11T14:24:12;3.70;;;1.60;;
21303;SDS011;30547;52.384;9.744;2022-08-11T14:26:43;1.70;;;1.40;;
21303;SDS011;30547;52.384;9.744;2022-08-11T14:29:13;3.83;;;1.80;;
21303;SDS011;30547;52.384;9.744;2022-08-11T14:31:43;3.45;;;1.85;;
21303;SDS011;30547;52.384;9.744;2022-08-11T14:34:13;2.38;;;1.80;;
21303;SDS011;30547;52.384;9.744;2022-08-11T14:36:40;2.30;;;1.70;;
21303;SDS011;30547;52.384;9.744;2022-08-11T14:39:08;3.22;;;1.88;;
21303;SDS011;30547;52.384;9.744;2022-08-11T14:41:54;4.50;;;1.83;;
21303;SDS011;30547;52.384;9.744;2022-08-11T14:44:44;4.32;;;2.03;;
21303;SDS011;30547;52.384;9.744;2022-08-11T14:47:47;11.48;;;2.70;;
21303;SDS011;30547;52.384;9.744;2022-08-11T14:50:25;1.83;;;1.60;;
21303;SDS011;30547;52.384;9.744;2022-08-11T14:52:54;5.35;;;2.00;;
21303;SDS011;30547;52.384;9.744;2022-08-11T14:55:23;4.07;;;1.90;;
21303;SDS011;30547;52.384;9.744;2022-08-11T14:58:15;3.42;;;1.80;;
21303;SDS011;30547;52.384;9.744;2022-08-11T15:00:43;4.00;;;1.90;;
21303;SDS011;30547;52.384;9.744;2022-08-11T15:03:11;2.63;;;1.70;;
21303;SDS011;30547;52.384;9.744;2022-08-11T15:05:45;3.78;;;1.75;;
21303;SDS011;30547;52.384;9.744;2022-08-11T15:08:16;2.70;;;1.80;;
21303;SDS011;30547;52.384;9.744;2022-08-11T15:10:43;5.13;;;1.98;;
21303;SDS011;30547;52.384;9.744;2022-08-11T15:13:14;3.70;;;1.70;;
21303;SDS011;30547;52.384;9.744;2022-08-11T15:15:42;4.07;;;1.52;;
21303;SDS011;30547;52.384;9.744;2022-08-11T15:18:27;3.58;;;1.60;;
21303;SDS011;30547;52.384;9.744;2022-08-11T15:20:56;3.63;;;1.83;;
21303;SDS011;30547;52.384;9.744;2022-08-11T15:23:40;3.22;;;1.80;;
21303;SDS011;30547;52.384;9.744;2022-08-11T15:26:38;3.08;;;1.70;;
21303;SDS011;30547;52.384;9.744;2022-08-11T15:29:24;2.85;;;2.00;;
21303;SDS011;30547;52.384;9.744;2022-08-11T15:32:15;2.35;;;1.60;;
21303;SDS011;30547;52.384;9.744;2022-08-11T15:34:58;3.50;;;1.67;;
21303;SDS011;30547;52.384;9.744;2022-08-11T15:37:43;3.50;;;1.60;;
21303;SDS011;30547;52.384;9.744;2022-08-11T15:40:12;3.38;;;1.80;;
21303;SDS011;30547;52.384;9.744;2022-08-11T15:43:03;2.40;;;1.63;;
21303;SDS011;30547;52.384;9.744;2022-08-11T15:46:10;5.55;;;1.60;;
21303;SDS011;30547;52.384;9.744;2022-08-11T15:48:40;2.92;;;1.35;;
21303;SDS011;30547;52.384;9.744;2022-08-11T15:51:28;9.43;;;1.65;;
21303;SDS011;30547;52.384;9.744;2022-08-11T15:54:02;4.25;;;1.73;;
21303;SDS011;30547;52.384;9.744;2022-08-11T15:56:30;2.75;;;1.50;;
21303;SDS011;30547;52.384;9.744;2022-08-11T15:58:57;4.85;;;1.67;;
21303;SDS011;30547;52.384;9.744;2022-08-11T16:01:44;2.55;;;1.85;;
21303;SDS011;30547;52.384;9.744;2022-08-11T16:04:29;3.78;;;1.88;;
21303;SDS011;30547;52.384;9.744;2022-08-11T16:06:59;1.88;;;1.70;;
21303;SDS011;30547;52.384;9.744;2022-08-11T16:12:31;2.13;;;1.40;;
21303;SDS011;30547;52.384;9.744;2022-08-11T16:15:05;2.00;;;1.55;;
21303;SDS011;30547;52.384;9.744;2022-08-11T16:17:56;3.00;;;1.70;;
21303;SDS011;30547;52.384;9.744;2022-08-11T16:20:27;3.55;;;1.45;;
21303;SDS011;30547;52.384;9.744;2022-08-11T16:22:56;2.77;;;1.50;;
21303;SDS011;30547;52.384;9.744;2022-08-11T16:25:32;2.75;;;1.50;;
21303;SDS011;30547;52.384;9.744;2022-08-11T16:28:05;2.65;;;1.70;;
21303;SDS011;30547;52.384;9.744;2022-08-11T16:30:35;4.38;;;1.65;;
21303;SDS011;30547;52.384;9.744;2022-08-11T16:33:07;2.28;;;1.55;;
21303;SDS011;30547;52.384;9.744;2022-08-11T16:35:35;2.78;;;1.70;;
21303;SDS011;30547;52.384;9.744;2022-08-11T16:38:21;3.38;;;1.70;;
21303;SDS011;30547;52.384;9.744;2022-08-11T16:41:06;1.90;;;1.60;;
21303;SDS011;30547;52.384;9.744;2022-08-11T16:43:44;4.65;;;1.70;;
21303;SDS011;30547;52.384;9.744;2022-08-11T16:46:30;2.70;;;1.65;;
21303;SDS011;30547;52.384;9.744;2022-08-11T16:49:21;4.80;;;1.60;;
21303;SDS011;30547;52.384;9.744;2022-08-11T16:51:50;3.90;;;1.60;;
21303;SDS011;30547;52.384;9.744;2022-08-11T16:54:18;3.20;;;1.45;;
21303;SDS011;30547;52.384;9.744;2022-08-11T16:56:45;2.70;;;1.50;;
21303;SDS011;30547;52.384;9.744;2022-08-11T16:59:35;3.55;;;1.88;;
21303;SDS011;30547;52.384;9.744;2022-08-11T17:02:02;2.07;;;1.70;;
21303;SDS011;30547;52.384;9.744;2022-08-11T17:04:42;3.08;;;1.52;;
21303;SDS011;30547;52.384;9.744;2022-08-11T17:07:30;4.10;;;1.50;;
21303;SDS011;30547;52.384;9.744;2022-08-11T17:10:25;3.28;;;1.60;;
21303;SDS011;30547;52.384;9.744;2022-08-11T17:13:11;4.90;;;1.52;;
21303;SDS011;30547;52.384;9.744;2022-08-11T17:15:41;2.70;;;1.70;;
21303;SDS011;30547;52.384;9.744;2022-08-11T17:18:27;2.70;;;1.48;;
21303;SDS011;30547;52.384;9.744;2022-08-11T17:23:42;3.45;;;1.20;;
21303;SDS011;30547;52.384;9.744;2022-08-11T17:26:14;3.30;;;1.48;;
21303;SDS011;30547;52.384;9.744;2022-08-11T17:32:01;1.25;;;1.15;;
21303;SDS011;30547;52.384;9.744;2022-08-11T17:34:49;2.95;;;1.25;;
21303;SDS011;30547;52.384;9.744;2022-08-11T17:37:35;2.60;;;1.20;;
21303;SDS011;30547;52.384;9.744;2022-08-11T17:40:05;2.90;;;1.38;;
21303;SDS011;30547;52.384;9.744;2022-08-11T17:42:32;2.60;;;1.25;;
21303;SDS011;30547;52.384;9.744;2022-08-11T17:45:17;2.90;;;1.30;;
21303;SDS011;30547;52.384;9.744;2022-08-11T17:48:07;1.52;;;1.20;;
21303;SDS011;30547;52.384;9.744;2022-08-11T17:50:53;2.00;;;1.15;;
21303;SDS011;30547;52.384;9.744;2022-08-11T17:53:21;3.65;;;1.20;;
21303;SDS011;30547;52.384;9.744;2022-08-11T17:56:05;1.40;;;1.10;;
21303;SDS011;30547;52.384;9.744;2022-08-11T17:58:50;1.30;;;1.20;;
21303;SDS011;30547;52.384;9.744;2022-08-11T18:01:36;2.03;;;1.10;;
21303;SDS011;30547;52.384;9.744;2022-08-11T18:04:06;4.22;;;1.30;;
21303;SDS011;30547;52.384;9.744;2022-08-11T18:06:34;4.68;;;1.52;;
21303;SDS011;30547;52.384;9.744;2022-08-11T18:09:01;2.70;;;1.60;;
21303;SDS011;30547;52.384;9.744;2022-08-11T18:11:47;2.25;;;1.40;;
21303;SDS011;30547;52.384;9.744;2022-08-11T18:14:33;3.30;;;1.53;;
21303;SDS011;30547;52.384;9.744;2022-08-11T18:17:19;3.58;;;1.60;;
21303;SDS011;30547;52.384;9.744;2022-08-11T18:20:04;2.80;;;1.52;;
21303;SDS011;30547;52.384;9.744;2022-08-11T18:22:49;2.55;;;1.40;;
21303;SDS011;30547;52.384;9.744;2022-08-11T18:25:38;1.50;;;1.10;;
21303;SDS011;30547;52.384;9.744;2022-08-11T18:28:25;3.55;;;1.50;;
21303;SDS011;30547;52.384;9.744;2022-08-11T18:31:13;2.55;;;1.92;;
21303;SDS011;30547;52.384;9.744;2022-08-11T18:34:01;3.05;;;1.67;;
21303;SDS011;30547;52.384;9.744;2022-08-11T18:36:53;2.35;;;1.33;;
21303;SDS011;30547;52.384;9.744;2022-08-11T18:39:52;2.78;;;1.20;;
21303;SDS011;30547;52.384;9.744;2022-08-11T18:42:48;4.00;;;1.33;;
21303;SDS011;30547;52.384;9.744;2022-08-11T18:45:34;2.90;;;1.20;;
21303;SDS011;30547;52.384;9.744;2022-08-11T18:48:20;2.40;;;1.40;;
21303;SDS011;30547;52.384;9.744;2022-08-11T18:51:07;1.48;;;1.27;;
21303;SDS011;30547;52.384;9.744;2022-08-11T18:53:55;3.90;;;1.38;;
21303;SDS011;30547;52.384;9.744;2022-08-11T18:56:44;2.37;;;1.47;;
21303;SDS011;30547;52.384;9.744;2022-08-11T18:59:35;4.87;;;1.40;;
21303;SDS011;30547;52.384;9.744;2022-08-11T19:02:23;2.40;;;1.20;;
21303;SDS011;30547;52.384;9.744;2022-08-11T19:05:09;2.00;;;1.15;;
21303;SDS011;30547;52.384;9.744;2022-08-11T19:07:57;2.95;;;1.30;;
21303;SDS011;30547;52.384;9.744;2022-08-11T19:10:44;2.72;;;1.52;;
21303;SDS011;30547;52.384;9.744;2022-08-11T19:13:33;3.50;;;1.45;;
21303;SDS011;30547;52.384;9.744;2022-08-11T19:16:21;3.45;;;2.10;;
21303;SDS011;30547;52.384;9.744;2022-08-11T19:19:09;4.55;;;1.30;;
21303;SDS011;30547;52.384;9.744;2022-08-11T19:21:58;4.50;;;1.50;;
21303;SDS011;30547;52.384;9.744;2022-08-11T19:24:50;2.93;;;1.53;;
21303;SDS011;30547;52.384;9.744;2022-08-11T19:27:37;2.08;;;1.30;;
21303;SDS011;30547;52.384;9.744;2022-08-11T19:30:24;3.08;;;1.33;;